createdAt,value
2023-03-15T00:01:30.063Z,7.10
2023-03-15T00:04:07.225Z,6.90
2023-03-15T00:06:42.813Z,6.90
2023-03-15T00:09:17.890Z,6.90
2023-03-15T00:11:52.554Z,6.90
2023-03-15T00:14:28.158Z,6.90
2023-03-15T00:17:02.285Z,6.90
2023-03-15T00:19:36.154Z,6.90
2023-03-15T00:22:10.991Z,7.20
2023-03-15T00:24:45.399Z,6.90
2023-03-15T00:27:21.188Z,7.20
2023-03-15T00:29:56.959Z,6.90
2023-03-15T00:32:31.897Z,6.90
2023-03-15T00:35:07.128Z,7.20
2023-03-15T00:37:41.297Z,6.90
2023-03-15T00:40:15.557Z,6.90
2023-03-15T00:42:50.425Z,6.90
2023-03-15T00:45:26.520Z,6.90
2023-03-15T00:48:01.745Z,6.90
2023-03-15T00:50:35.898Z,6.90
2023-03-15T00:53:11.649Z,6.90
2023-03-15T00:55:46.026Z,6.90
2023-03-15T00:58:23.273Z,6.90
2023-03-15T01:00:59.739Z,6.90
2023-03-15T01:03:36.687Z,6.90
2023-03-15T01:06:15.661Z,6.80
2023-03-15T01:08:52.058Z,6.80
2023-03-15T01:11:29.383Z,6.80
2023-03-15T01:14:05.494Z,6.70
2023-03-15T01:16:42.554Z,6.90
2023-03-15T01:19:17.346Z,6.70
2023-03-15T01:21:51.110Z,6.60
2023-03-15T01:24:24.641Z,6.60
2023-03-15T01:26:58.148Z,6.60
2023-03-15T01:29:32.113Z,6.60
2023-03-15T01:32:08.685Z,6.90
2023-03-15T01:34:46.117Z,6.50
2023-03-15T01:37:23.154Z,6.50
2023-03-15T01:39:58.017Z,6.70
2023-03-15T01:42:31.932Z,6.50
2023-03-15T01:45:06.751Z,6.40
2023-03-15T01:47:43.270Z,6.40
2023-03-15T01:50:17.148Z,6.30
2023-03-15T01:52:51.009Z,6.30
2023-03-15T01:55:25.217Z,6.30
2023-03-15T01:58:07.124Z,6.30
2023-03-15T02:00:41.840Z,6.20
2023-03-15T02:03:23.001Z,6.20
2023-03-15T02:06:04.401Z,6.20
2023-03-15T02:08:45.273Z,6.20
2023-03-15T02:11:23.515Z,6.10
2023-03-15T02:13:59.438Z,6.10
2023-03-15T02:16:34.710Z,6.10
2023-03-15T02:19:25.772Z,6.10
2023-03-15T02:22:17.825Z,6.00
2023-03-15T02:25:00.932Z,6.00
2023-03-15T02:27:38.882Z,6.00
2023-03-15T02:30:15.992Z,6.00
2023-03-15T02:32:51.006Z,6.00
2023-03-15T02:35:27.984Z,6.00
2023-03-15T02:38:03.180Z,6.00
2023-03-15T02:40:37.193Z,6.00
2023-03-15T02:43:19.838Z,6.00
2023-03-15T02:45:54.212Z,6.00
2023-03-15T02:48:30.391Z,6.00
2023-03-15T02:51:04.065Z,6.00
2023-03-15T02:53:38.265Z,6.00
2023-03-15T02:56:12.439Z,6.00
2023-03-15T02:58:48.245Z,6.00
2023-03-15T03:01:22.720Z,6.00
2023-03-15T03:03:57.294Z,6.40
2023-03-15T03:06:31.334Z,6.00
2023-03-15T03:09:05.896Z,6.00
2023-03-15T03:11:40.377Z,6.00
2023-03-15T03:14:15.866Z,6.00
2023-03-15T03:16:50.021Z,6.30
2023-03-15T03:19:26.129Z,6.00
2023-03-15T03:22:00.661Z,6.10
2023-03-15T03:24:34.239Z,6.00
2023-03-15T03:27:09.386Z,6.00
2023-03-15T03:29:45.637Z,6.00
2023-03-15T03:32:19.474Z,6.10
2023-03-15T03:34:53.489Z,6.40
2023-03-15T03:37:28.026Z,6.40
2023-03-15T03:40:02.070Z,6.00
2023-03-15T03:42:36.406Z,6.10
2023-03-15T03:45:16.014Z,6.10
2023-03-15T03:47:52.177Z,6.10
2023-03-15T03:50:26.205Z,6.10
2023-03-15T03:52:59.905Z,6.30
2023-03-15T03:55:34.890Z,6.10
2023-03-15T03:58:09.058Z,6.00
2023-03-15T04:00:44.897Z,6.00
2023-03-15T04:03:19.123Z,6.00
2023-03-15T04:05:52.960Z,6.00
2023-03-15T04:08:29.807Z,6.00
2023-03-15T04:11:05.515Z,6.00
2023-03-15T04:13:39.493Z,6.00
2023-03-15T04:16:14.770Z,6.00
2023-03-15T04:18:50.148Z,6.20
2023-03-15T04:21:24.750Z,5.90
2023-03-15T04:24:00.098Z,5.90
2023-03-15T04:26:34.895Z,5.90
2023-03-15T04:29:09.158Z,5.90
2023-03-15T04:31:45.355Z,5.90
2023-03-15T04:34:19.773Z,5.90
2023-03-15T04:36:54.809Z,6.10
2023-03-15T04:39:29.839Z,5.90
2023-03-15T04:42:04.980Z,5.90
2023-03-15T04:44:39.116Z,5.90
2023-03-15T04:47:15.527Z,6.10
2023-03-15T04:49:51.518Z,6.20
2023-03-15T04:52:25.181Z,5.90
2023-03-15T04:54:59.150Z,5.90
2023-03-15T04:57:34.610Z,5.90
2023-03-15T05:00:13.101Z,6.00
2023-03-15T05:02:55.243Z,6.00
2023-03-15T05:05:29.413Z,6.00
2023-03-15T05:08:03.199Z,6.00
2023-03-15T05:10:37.018Z,6.00
2023-03-15T05:13:11.286Z,6.00
2023-03-15T05:15:44.953Z,6.00
2023-03-15T05:18:20.350Z,6.00
2023-03-15T05:20:56.174Z,6.00
2023-03-15T05:23:29.734Z,6.10
2023-03-15T05:26:04.313Z,6.10
2023-03-15T05:28:38.463Z,6.10
2023-03-15T05:31:12.873Z,6.00
2023-03-15T05:33:48.599Z,6.00
2023-03-15T05:36:22.745Z,6.00
2023-03-15T05:38:56.580Z,6.00
2023-03-15T05:41:30.704Z,6.00
2023-03-15T05:44:04.996Z,6.00
2023-03-15T05:46:38.488Z,6.00
2023-03-15T05:49:14.726Z,6.00
2023-03-15T05:51:48.508Z,6.20
2023-03-15T05:54:22.811Z,5.90
2023-03-15T05:56:56.514Z,6.00
2023-03-15T05:59:31.556Z,5.90
2023-03-15T06:02:06.905Z,5.80
2023-03-15T06:04:42.459Z,5.80
2023-03-15T06:07:16.165Z,5.80
2023-03-15T06:09:50.302Z,5.80
2023-03-15T06:12:24.333Z,5.80
2023-03-15T06:14:58.745Z,5.80
2023-03-15T06:17:32.897Z,5.80
2023-03-15T06:20:11.530Z,5.80
2023-03-15T06:22:46.100Z,5.80
2023-03-15T06:25:23.180Z,6.00
2023-03-15T06:27:56.944Z,5.80
2023-03-15T06:30:31.090Z,5.80
2023-03-15T06:33:05.062Z,5.80
2023-03-15T06:35:41.692Z,5.80
2023-03-15T06:38:15.582Z,5.80
2023-03-15T06:40:49.600Z,5.80
2023-03-15T06:43:23.461Z,5.90
2023-03-15T06:46:00.342Z,6.20
2023-03-15T06:48:34.437Z,5.90
2023-03-15T06:51:10.502Z,5.90
2023-03-15T06:53:44.207Z,6.00
2023-03-15T06:56:18.253Z,6.00
2023-03-15T06:58:52.821Z,6.00
2023-03-15T07:01:26.643Z,6.00
2023-03-15T07:04:01.349Z,6.10
2023-03-15T07:06:38.096Z,6.10
2023-03-15T07:09:11.681Z,6.10
2023-03-15T07:11:45.262Z,6.10
2023-03-15T07:14:19.286Z,6.10
2023-03-15T07:16:53.217Z,6.20
2023-03-15T07:19:27.224Z,6.20
2023-03-15T07:22:03.231Z,6.20
2023-03-15T07:24:37.322Z,6.30
2023-03-15T07:27:16.494Z,6.60
2023-03-15T07:29:51.767Z,6.30
2023-03-15T07:32:26.247Z,6.30
2023-03-15T07:35:01.176Z,6.40
2023-03-15T07:37:36.663Z,6.40
2023-03-15T07:40:14.162Z,6.40
2023-03-15T07:42:48.447Z,6.50
2023-03-15T07:45:22.196Z,6.50
2023-03-15T07:47:56.736Z,6.50
2023-03-15T07:50:30.842Z,6.50
2023-03-15T07:53:07.334Z,6.50
2023-03-15T07:55:41.811Z,6.80
2023-03-15T07:58:15.548Z,6.50
2023-03-15T08:00:50.272Z,6.50
2023-03-15T08:03:24.315Z,6.50
2023-03-15T08:05:58.862Z,6.50
2023-03-15T08:08:34.053Z,6.50
2023-03-15T08:11:09.476Z,6.70
2023-03-15T08:13:43.734Z,6.60
2023-03-15T08:16:17.550Z,6.60
2023-03-15T08:18:51.305Z,6.60
2023-03-15T08:21:24.959Z,6.70
2023-03-15T08:24:00.585Z,6.70
2023-03-15T08:26:34.570Z,6.80
2023-03-15T08:29:08.181Z,6.80
2023-03-15T08:31:42.076Z,6.80
2023-03-15T08:34:16.644Z,6.80
2023-03-15T08:36:53.273Z,6.90
2023-03-15T08:39:28.864Z,6.90
2023-03-15T08:42:02.788Z,6.90
2023-03-15T08:44:37.167Z,7.20
2023-03-15T08:47:11.434Z,7.10
2023-03-15T08:49:46.251Z,6.90
2023-03-15T08:52:20.091Z,7.00
2023-03-15T08:54:56.460Z,7.00
2023-03-15T08:57:33.192Z,7.10
2023-03-15T09:00:10.426Z,7.20
2023-03-15T09:02:45.048Z,7.30
2023-03-15T09:05:19.508Z,7.40
2023-03-15T09:07:53.686Z,7.60
2023-03-15T09:10:32.172Z,7.70
2023-03-15T09:13:12.868Z,7.80
2023-03-15T09:15:48.118Z,7.90
2023-03-15T09:18:23.333Z,8.00
2023-03-15T09:20:57.822Z,8.40
2023-03-15T09:23:31.978Z,8.10
2023-03-15T09:26:12.016Z,8.10
2023-03-15T09:28:46.363Z,8.10
2023-03-15T09:31:21.180Z,8.20
2023-03-15T09:33:55.289Z,8.20
2023-03-15T09:36:29.411Z,8.20
2023-03-15T09:39:03.853Z,8.20
2023-03-15T09:41:48.558Z,8.20
2023-03-15T09:44:46.417Z,8.40
2023-03-15T09:47:40.498Z,8.30
2023-03-15T09:50:23.294Z,8.40
2023-03-15T09:53:02.036Z,8.40
2023-03-15T09:55:37.138Z,8.50
2023-03-15T09:58:23.178Z,8.50
2023-03-15T10:01:02.508Z,8.50
2023-03-15T10:03:48.005Z,8.50
2023-03-15T10:06:27.871Z,8.50
2023-03-15T10:09:05.497Z,8.50
2023-03-15T10:11:50.137Z,8.50
2023-03-15T10:14:48.023Z,8.50
2023-03-15T10:17:32.555Z,8.90
2023-03-15T10:20:14.486Z,8.70
2023-03-15T10:22:58.041Z,8.80
2023-03-15T10:25:35.447Z,9.00
2023-03-15T10:28:17.137Z,9.10
2023-03-15T10:30:54.098Z,9.20
2023-03-15T10:33:34.959Z,9.30
2023-03-15T10:36:18.113Z,9.70
2023-03-15T10:38:53.351Z,9.40
2023-03-15T10:41:41.809Z,9.80
2023-03-15T10:44:22.447Z,9.60
2023-03-15T10:47:22.168Z,9.70
2023-03-15T10:50:01.079Z,9.80
2023-03-15T10:52:39.946Z,10.00
2023-03-15T10:55:18.454Z,10.20
2023-03-15T10:58:00.311Z,10.40
2023-03-15T11:00:36.552Z,10.50
2023-03-15T11:03:21.306Z,10.60
2023-03-15T11:05:58.972Z,10.80
2023-03-15T11:08:42.403Z,10.90
2023-03-15T11:11:17.745Z,11.00
2023-03-15T11:14:04.521Z,11.10
2023-03-15T11:16:41.839Z,11.20
2023-03-15T11:19:21.281Z,11.30
2023-03-15T11:21:56.689Z,11.40
2023-03-15T11:24:32.825Z,11.40
2023-03-15T11:27:14.518Z,11.50
2023-03-15T11:29:53.922Z,11.50
2023-03-15T11:32:33.261Z,11.50
2023-03-15T11:35:15.949Z,11.40
2023-03-15T11:38:03.160Z,11.40
2023-03-15T11:40:47.779Z,11.30
2023-03-15T11:43:27.357Z,11.30
2023-03-15T11:46:07.689Z,11.30
2023-03-15T11:48:49.258Z,11.40
2023-03-15T11:51:29.582Z,11.40
2023-03-15T11:54:14.014Z,11.40
2023-03-15T11:56:55.885Z,11.40
2023-03-15T11:59:33.542Z,11.40
2023-03-15T12:02:49.581Z,11.40
2023-03-15T12:05:48.416Z,11.40
2023-03-15T12:08:43.010Z,11.40
2023-03-15T12:11:42.673Z,11.50
2023-03-15T12:14:30.896Z,11.60
2023-03-15T12:17:46.978Z,11.80
2023-03-15T12:20:35.272Z,11.90
2023-03-15T12:23:37.306Z,11.90
2023-03-15T12:26:28.997Z,12.00
2023-03-15T12:29:15.090Z,12.00
2023-03-15T12:32:13.597Z,12.20
2023-03-15T12:34:52.275Z,12.00
2023-03-15T12:37:40.343Z,12.20
2023-03-15T12:40:50.981Z,12.20
2023-03-15T12:43:43.196Z,12.20
2023-03-15T12:46:57.959Z,12.30
2023-03-15T12:49:44.609Z,12.40
2023-03-15T12:52:44.240Z,12.40
2023-03-15T12:55:21.249Z,12.40
2023-03-15T12:57:59.508Z,12.50
2023-03-15T13:00:37.025Z,12.50
2023-03-15T13:03:16.824Z,12.60
2023-03-15T13:06:06.263Z,12.70
2023-03-15T13:08:49.980Z,12.80
2023-03-15T13:11:42.322Z,12.90
2023-03-15T13:14:38.118Z,13.00
2023-03-15T13:17:30.310Z,13.10
2023-03-15T13:20:39.081Z,13.10
2023-03-15T13:23:20.380Z,13.20
2023-03-15T13:26:21.749Z,13.20
2023-03-15T13:29:01.751Z,13.30
2023-03-15T13:31:41.297Z,13.30
2023-03-15T13:34:20.835Z,13.20
2023-03-15T13:36:59.567Z,13.20
2023-03-15T13:39:37.223Z,13.10
2023-03-15T13:42:24.304Z,13.10
2023-03-15T13:45:14.672Z,13.10
2023-03-15T13:47:50.722Z,13.10
2023-03-15T13:50:24.665Z,13.00
2023-03-15T13:52:58.348Z,13.00
2023-03-15T13:55:37.493Z,13.00
2023-03-15T13:58:19.910Z,13.00
2023-03-15T14:01:01.981Z,13.30
2023-03-15T14:03:38.001Z,13.00
2023-03-15T14:06:23.285Z,13.00
2023-03-15T14:09:04.038Z,13.00
2023-03-15T14:11:41.091Z,13.00
2023-03-15T14:14:27.758Z,13.00
2023-03-15T14:17:08.754Z,12.90
2023-03-15T14:19:57.178Z,12.80
2023-03-15T14:22:31.926Z,12.70
2023-03-15T14:25:23.016Z,12.70
2023-03-15T14:28:02.229Z,12.70
2023-03-15T14:30:39.326Z,12.60
2023-03-15T14:33:30.963Z,12.60
2023-03-15T14:36:28.512Z,12.60
2023-03-15T14:39:06.127Z,12.50
2023-03-15T14:41:41.777Z,12.50
2023-03-15T14:44:17.272Z,12.50
2023-03-15T14:46:51.863Z,12.50
2023-03-15T14:49:29.648Z,12.40
2023-03-15T14:52:11.374Z,12.50
2023-03-15T14:54:51.241Z,12.50
2023-03-15T14:57:41.271Z,12.50
2023-03-15T15:00:21.295Z,12.50
2023-03-15T15:02:58.698Z,12.60
2023-03-15T15:05:36.039Z,12.50
2023-03-15T15:08:15.230Z,12.50
2023-03-15T15:10:55.303Z,12.50
2023-03-15T15:13:31.647Z,12.40
2023-03-15T15:16:07.215Z,12.40
2023-03-15T15:18:43.879Z,12.40
2023-03-15T15:21:25.781Z,12.40
2023-03-15T15:24:03.496Z,12.40
2023-03-15T15:26:44.084Z,12.40
2023-03-15T15:29:19.054Z,12.40
2023-03-15T15:31:52.698Z,12.40
2023-03-15T15:34:26.592Z,12.40
2023-03-15T15:37:01.977Z,12.40
2023-03-15T15:39:37.680Z,12.40
2023-03-15T15:42:12.799Z,12.40
2023-03-15T15:44:49.657Z,12.40
2023-03-15T15:47:24.650Z,12.40
2023-03-15T15:49:58.446Z,12.30
2023-03-15T15:52:34.314Z,12.30
2023-03-15T15:55:13.671Z,12.30
2023-03-15T15:57:50.966Z,12.30
2023-03-15T16:00:30.364Z,12.20
2023-03-15T16:03:04.992Z,12.20
2023-03-15T16:05:39.138Z,12.20
2023-03-15T16:08:23.090Z,12.10
2023-03-15T16:10:58.952Z,12.40
2023-03-15T16:13:33.291Z,12.30
2023-03-15T16:16:11.721Z,12.00
2023-03-15T16:18:46.911Z,12.00
2023-03-15T16:21:34.285Z,12.00
2023-03-15T16:24:16.924Z,11.90
2023-03-15T16:26:53.543Z,11.90
2023-03-15T16:29:36.929Z,12.00
2023-03-15T16:32:20.831Z,11.80
2023-03-15T16:34:58.981Z,11.80
2023-03-15T16:37:34.813Z,11.80
2023-03-15T16:40:21.775Z,11.70
2023-03-15T16:42:57.988Z,11.70
2023-03-15T16:45:31.726Z,11.70
2023-03-15T16:48:06.106Z,11.70
2023-03-15T16:50:42.475Z,11.70
2023-03-15T16:53:16.162Z,11.70
2023-03-15T16:55:50.803Z,11.60
2023-03-15T16:58:26.577Z,11.60
2023-03-15T17:01:02.377Z,11.60
2023-03-15T17:03:37.544Z,11.60
2023-03-15T17:06:20.589Z,11.60
2023-03-15T17:09:02.646Z,11.50
2023-03-15T17:11:39.315Z,11.50
2023-03-15T17:14:19.655Z,11.50
2023-03-15T17:16:53.525Z,11.40
2023-03-15T17:19:27.842Z,11.40
2023-03-15T17:22:08.629Z,11.40
2023-03-15T17:24:42.680Z,11.30
2023-03-15T17:27:29.644Z,11.30
2023-03-15T17:30:17.712Z,11.20
2023-03-15T17:32:54.931Z,11.20
2023-03-15T17:35:33.823Z,11.10
2023-03-15T17:38:16.542Z,11.10
2023-03-15T17:40:52.416Z,11.20
2023-03-15T17:43:26.767Z,11.00
2023-03-15T17:46:02.466Z,10.90
2023-03-15T17:48:37.870Z,10.90
2023-03-15T17:51:16.788Z,10.80
2023-03-15T17:53:54.195Z,10.80
2023-03-15T17:56:30.295Z,10.70
2023-03-15T17:59:05.001Z,10.70
2023-03-15T18:01:45.579Z,10.60
2023-03-15T18:04:21.990Z,10.80
2023-03-15T18:06:55.975Z,10.50
2023-03-15T18:09:31.487Z,10.80
2023-03-15T18:12:06.020Z,10.40
2023-03-15T18:14:40.356Z,10.40
2023-03-15T18:17:18.061Z,10.30
2023-03-15T18:19:53.065Z,10.20
2023-03-15T18:22:27.263Z,10.20
2023-03-15T18:25:03.988Z,10.20
2023-03-15T18:27:38.518Z,10.10
2023-03-15T18:30:17.790Z,10.00
2023-03-15T18:32:57.040Z,9.90
2023-03-15T18:35:35.431Z,10.10
2023-03-15T18:38:13.019Z,9.80
2023-03-15T18:40:48.154Z,9.70
2023-03-15T18:43:31.403Z,9.70
2023-03-15T18:46:07.391Z,9.60
2023-03-15T18:48:45.524Z,9.50
2023-03-15T18:51:19.827Z,9.50
2023-03-15T18:53:55.414Z,9.40
2023-03-15T18:56:34.551Z,9.30
2023-03-15T18:59:11.620Z,9.20
2023-03-15T19:01:46.764Z,9.30
2023-03-15T19:04:22.821Z,9.10
2023-03-15T19:06:57.332Z,9.10
2023-03-15T19:09:31.384Z,9.10
2023-03-15T19:12:06.646Z,9.00
2023-03-15T19:14:41.732Z,9.00
2023-03-15T19:17:15.958Z,9.10
2023-03-15T19:19:51.478Z,8.90
2023-03-15T19:22:26.653Z,8.80
2023-03-15T19:25:00.730Z,9.00
2023-03-15T19:27:35.767Z,8.70
2023-03-15T19:30:14.592Z,8.60
2023-03-15T19:32:50.355Z,8.30
2023-03-15T19:35:28.791Z,8.80
2023-03-15T19:38:04.715Z,8.50
2023-03-15T19:40:39.252Z,8.50
2023-03-15T19:43:16.030Z,8.50
2023-03-15T19:45:52.829Z,8.10
2023-03-15T19:48:27.432Z,8.50
2023-03-15T19:51:03.576Z,8.30
2023-03-15T19:53:37.877Z,8.00
2023-03-15T19:56:11.957Z,8.20
2023-03-15T19:58:46.411Z,8.20
2023-03-15T20:01:20.949Z,8.10
2023-03-15T20:03:55.570Z,8.10
2023-03-15T20:06:31.770Z,8.10
2023-03-15T20:09:07.056Z,8.00
2023-03-15T20:11:42.090Z,8.00
2023-03-15T20:14:19.177Z,8.00
2023-03-15T20:16:53.910Z,8.00
2023-03-15T20:19:29.957Z,8.20
2023-03-15T20:22:05.922Z,8.20
2023-03-15T20:24:40.876Z,7.90
2023-03-15T20:27:18.985Z,8.20
2023-03-15T20:29:54.745Z,8.10
2023-03-15T20:32:30.218Z,7.90
2023-03-15T20:35:09.180Z,7.90
2023-03-15T20:37:45.060Z,7.80
2023-03-15T20:40:20.859Z,7.80
2023-03-15T20:42:56.001Z,7.80
2023-03-15T20:45:32.516Z,8.00
2023-03-15T20:48:07.158Z,7.70
2023-03-15T20:50:41.864Z,7.70
2023-03-15T20:53:19.679Z,7.70
2023-03-15T20:56:05.432Z,7.60
2023-03-15T20:58:39.449Z,7.60
2023-03-15T21:01:18.319Z,7.90
2023-03-15T21:03:54.802Z,7.60
2023-03-15T21:06:30.681Z,7.60
2023-03-15T21:09:07.417Z,7.50
2023-03-15T21:11:44.622Z,7.50
2023-03-15T21:14:20.188Z,7.60
2023-03-15T21:16:54.521Z,7.50
2023-03-15T21:19:28.833Z,7.20
2023-03-15T21:22:10.177Z,7.40
2023-03-15T21:24:55.068Z,7.40
2023-03-15T21:27:32.922Z,7.40
2023-03-15T21:30:15.589Z,7.40
2023-03-15T21:33:00.412Z,7.30
2023-03-15T21:35:35.935Z,7.30
2023-03-15T21:38:11.029Z,7.30
2023-03-15T21:40:52.707Z,7.30
2023-03-15T21:43:27.556Z,7.30
2023-03-15T21:46:03.395Z,7.20
2023-03-15T21:48:47.640Z,7.20
2023-03-15T21:51:22.397Z,7.40
2023-03-15T21:53:57.444Z,7.10
2023-03-15T21:56:33.467Z,7.10
2023-03-15T21:59:08.088Z,7.10
2023-03-15T22:01:41.882Z,7.10
2023-03-15T22:04:17.513Z,7.30
2023-03-15T22:06:52.877Z,7.00
2023-03-15T22:09:28.941Z,7.00
2023-03-15T22:12:05.560Z,7.00
2023-03-15T22:14:40.298Z,6.90
2023-03-15T22:17:14.207Z,7.00
2023-03-15T22:19:48.667Z,6.90
2023-03-15T22:22:22.990Z,6.90
2023-03-15T22:24:56.597Z,6.90
2023-03-15T22:27:32.345Z,6.90
2023-03-15T22:30:08.684Z,6.80
2023-03-15T22:32:44.799Z,6.80
2023-03-15T22:35:19.564Z,7.10
2023-03-15T22:37:57.109Z,6.70
2023-03-15T22:40:31.023Z,6.80
2023-03-15T22:43:06.989Z,6.90
2023-03-15T22:45:41.601Z,6.90
2023-03-15T22:48:18.058Z,6.70
2023-03-15T22:51:04.960Z,6.70
2023-03-15T22:53:38.778Z,7.00
2023-03-15T22:56:12.775Z,6.90
2023-03-15T22:58:49.062Z,6.60
2023-03-15T23:01:23.945Z,6.80
2023-03-15T23:04:05.700Z,6.50
2023-03-15T23:06:40.150Z,6.50
2023-03-15T23:09:14.308Z,6.50
2023-03-15T23:11:48.096Z,6.50
2023-03-15T23:14:23.637Z,6.50
2023-03-15T23:16:57.687Z,6.50
2023-03-15T23:19:34.454Z,6.50
2023-03-15T23:22:08.534Z,6.50
2023-03-15T23:24:42.520Z,6.50
2023-03-15T23:27:16.572Z,6.40
2023-03-15T23:29:55.235Z,6.40
2023-03-15T23:32:31.325Z,6.40
2023-03-15T23:35:06.962Z,6.40
2023-03-15T23:37:41.398Z,6.40
2023-03-15T23:40:17.314Z,6.40
2023-03-15T23:42:59.361Z,6.40
2023-03-15T23:45:35.062Z,6.40
2023-03-15T23:48:08.918Z,6.40
2023-03-15T23:50:45.508Z,6.40
2023-03-15T23:53:20.352Z,6.40
2023-03-15T23:55:55.140Z,6.40
2023-03-15T23:58:29.645Z,6.30
